createdAt,value
2018-04-07T00:01:17.501Z,4.30
2018-04-07T00:03:45.128Z,4.50
2018-04-07T00:06:12.752Z,5.33
2018-04-07T00:08:40.353Z,5.47
2018-04-07T00:11:08.013Z,5.67
2018-04-07T00:13:35.672Z,5.53
2018-04-07T00:16:03.334Z,5.87
2018-04-07T00:18:31.001Z,6.30
2018-04-07T00:20:58.632Z,7.10
2018-04-07T00:23:26.244Z,6.57
2018-04-07T00:25:53.877Z,6.53
2018-04-07T00:28:21.490Z,6.03
2018-04-07T00:30:49.120Z,7.43
2018-04-07T00:33:16.733Z,6.90
2018-04-07T00:35:44.431Z,7.20
2018-04-07T00:38:12.097Z,9.17
2018-04-07T00:40:39.773Z,7.33
2018-04-07T00:43:07.385Z,7.70
2018-04-07T00:45:34.993Z,7.27
2018-04-07T00:48:03.391Z,8.40
2018-04-07T00:50:31.004Z,6.53
2018-04-07T00:52:58.639Z,7.13
2018-04-07T00:55:26.360Z,8.10
2018-04-07T00:57:53.984Z,7.70
2018-04-07T01:00:21.592Z,8.20
2018-04-07T01:02:49.228Z,9.60
2018-04-07T01:05:16.836Z,8.50
2018-04-07T01:07:44.473Z,8.80
2018-04-07T01:10:12.081Z,8.17
2018-04-07T01:12:39.717Z,7.10
2018-04-07T01:15:07.327Z,8.23
2018-04-07T01:17:34.969Z,7.30
2018-04-07T01:20:02.641Z,7.13
2018-04-07T01:22:30.279Z,7.73
2018-04-07T01:24:57.992Z,8.80
2018-04-07T01:27:25.856Z,8.20
2018-04-07T01:29:53.469Z,7.97
2018-04-07T01:32:21.141Z,8.67
2018-04-07T01:34:48.848Z,7.93
2018-04-07T01:37:16.484Z,8.77
2018-04-07T01:39:44.096Z,9.03
2018-04-07T01:42:11.735Z,7.43
2018-04-07T01:44:39.393Z,8.47
2018-04-07T01:47:07.017Z,9.00
2018-04-07T01:49:34.631Z,8.40
2018-04-07T01:52:02.273Z,8.37
2018-04-07T01:54:29.953Z,9.57
2018-04-07T01:56:57.555Z,8.03
2018-04-07T01:59:25.216Z,8.90
2018-04-07T02:01:52.936Z,8.80
2018-04-07T02:04:20.604Z,9.20
2018-04-07T02:06:48.203Z,9.10
2018-04-07T02:09:15.848Z,8.77
2018-04-07T02:11:43.452Z,8.10
2018-04-07T02:14:11.149Z,9.20
2018-04-07T02:16:38.752Z,8.27
2018-04-07T02:19:06.394Z,8.30
2018-04-07T02:21:34.001Z,8.93
2018-04-07T02:24:01.628Z,9.40
2018-04-07T02:26:29.239Z,9.33
2018-04-07T02:28:56.868Z,9.07
2018-04-07T02:31:24.475Z,8.93
2018-04-07T02:33:52.120Z,9.97
2018-04-07T02:36:19.808Z,9.80
2018-04-07T02:38:47.464Z,7.90
2018-04-07T02:41:15.124Z,9.23
2018-04-07T02:43:42.762Z,9.03
2018-04-07T02:46:10.374Z,9.83
2018-04-07T02:48:38.002Z,9.10
2018-04-07T02:51:05.625Z,8.77
2018-04-07T02:53:33.336Z,8.93
2018-04-07T02:56:00.946Z,8.20
2018-04-07T02:58:28.670Z,9.20
2018-04-07T03:00:56.285Z,9.37
2018-04-07T03:03:24.012Z,8.70
2018-04-07T03:05:51.656Z,8.70
2018-04-07T03:08:19.292Z,10.07
2018-04-07T03:10:46.908Z,9.20
2018-04-07T03:13:14.513Z,8.83
2018-04-07T03:15:42.204Z,8.30
2018-04-07T03:18:09.964Z,8.43
2018-04-07T03:20:37.601Z,8.43
2018-04-07T03:23:05.294Z,8.50
2018-04-07T03:25:32.956Z,9.07
2018-04-07T03:28:00.620Z,8.47
2018-04-07T03:30:28.278Z,8.47
2018-04-07T03:32:55.949Z,8.87
2018-04-07T03:35:23.616Z,8.40
2018-04-07T03:37:51.236Z,9.43
2018-04-07T03:40:18.870Z,10.83
2018-04-07T03:42:46.471Z,7.67
2018-04-07T03:45:14.101Z,8.80
2018-04-07T03:47:41.814Z,8.60
2018-04-07T03:50:09.439Z,8.03
2018-04-07T03:52:37.049Z,7.80
2018-04-07T03:55:04.681Z,7.47
2018-04-07T03:57:32.293Z,7.67
2018-04-07T03:59:59.952Z,7.63
2018-04-07T04:02:27.557Z,6.47
2018-04-07T04:04:55.184Z,8.30
2018-04-07T04:07:22.786Z,6.93
2018-04-07T04:09:50.475Z,6.33
2018-04-07T04:12:18.087Z,6.77
2018-04-07T04:14:45.720Z,6.30
2018-04-07T04:17:13.338Z,6.67
2018-04-07T04:19:40.963Z,6.10
2018-04-07T04:22:08.568Z,5.47
2018-04-07T04:24:36.200Z,5.80
2018-04-07T04:27:03.832Z,5.97
2018-04-07T04:29:31.440Z,5.70
2018-04-07T04:31:59.089Z,7.20
2018-04-07T04:34:26.698Z,5.97
2018-04-07T04:36:54.329Z,5.53
2018-04-07T04:39:21.932Z,7.03
2018-04-07T04:41:49.562Z,6.10
2018-04-07T04:44:17.172Z,6.67
2018-04-07T04:46:44.912Z,6.43
2018-04-07T04:49:12.544Z,6.30
2018-04-07T04:51:40.181Z,5.90
2018-04-07T04:54:07.789Z,6.40
2018-04-07T04:56:35.416Z,6.40
2018-04-07T04:59:03.117Z,6.37
2018-04-07T05:01:30.748Z,6.90
2018-04-07T05:03:58.357Z,5.07
2018-04-07T05:06:25.979Z,5.73
2018-04-07T05:08:53.592Z,7.50
2018-04-07T05:11:21.225Z,6.53
2018-04-07T05:13:48.832Z,6.50
2018-04-07T05:16:16.466Z,6.07
2018-04-07T05:18:44.111Z,6.20
2018-04-07T05:21:11.741Z,7.53
2018-04-07T05:23:39.433Z,7.00
2018-04-07T05:26:07.067Z,6.97
2018-04-07T05:28:34.673Z,6.90
2018-04-07T05:31:02.303Z,7.83
2018-04-07T05:33:29.916Z,6.43
2018-04-07T05:35:57.649Z,7.60
2018-04-07T05:38:25.257Z,8.27
2018-04-07T05:40:52.877Z,7.90
2018-04-07T05:43:20.527Z,7.60
2018-04-07T05:45:48.154Z,7.70
2018-04-07T05:48:15.872Z,7.67
2018-04-07T05:50:43.524Z,6.90
2018-04-07T05:53:11.163Z,7.53
2018-04-07T05:55:38.769Z,7.30
2018-04-07T05:58:06.393Z,6.77
2018-04-07T06:00:33.999Z,7.03
2018-04-07T06:03:01.631Z,7.20
2018-04-07T06:05:29.241Z,7.30
2018-04-07T06:07:56.872Z,7.30
2018-04-07T06:10:24.481Z,8.23
2018-04-07T06:12:52.107Z,7.30
2018-04-07T06:15:19.720Z,8.23
2018-04-07T06:17:47.395Z,8.73
2018-04-07T06:20:14.996Z,7.63
2018-04-07T06:22:42.619Z,6.50
2018-04-07T06:25:10.237Z,7.60
2018-04-07T06:27:37.948Z,7.60
2018-04-07T06:30:05.578Z,8.70
2018-04-07T06:32:33.204Z,7.33
2018-04-07T06:35:00.860Z,6.67
2018-04-07T06:37:28.605Z,8.30
2018-04-07T06:39:56.269Z,7.20
2018-04-07T06:42:23.909Z,7.90
2018-04-07T06:44:51.595Z,8.00
2018-04-07T06:47:19.277Z,7.77
2018-04-07T06:49:46.949Z,8.00
2018-04-07T06:52:14.585Z,7.23
2018-04-07T06:54:42.225Z,6.90
2018-04-07T06:57:09.843Z,7.13
2018-04-07T06:59:37.467Z,8.17
2018-04-07T07:02:05.128Z,6.07
2018-04-07T07:04:32.752Z,6.57
2018-04-07T07:07:00.377Z,7.27
2018-04-07T07:09:28.012Z,6.57
2018-04-07T07:11:55.628Z,6.83
2018-04-07T07:14:23.272Z,7.27
2018-04-07T07:16:50.952Z,7.00
2018-04-07T07:19:18.663Z,6.90
2018-04-07T07:21:46.384Z,7.10
2018-04-07T07:24:14.031Z,8.17
2018-04-07T07:26:41.663Z,6.80
2018-04-07T07:29:09.302Z,6.40
2018-04-07T07:31:36.981Z,7.30
2018-04-07T07:34:04.644Z,6.80
2018-04-07T07:36:32.306Z,7.47
2018-04-07T07:38:59.950Z,6.70
2018-04-07T07:41:27.628Z,6.73
2018-04-07T07:43:55.293Z,6.90
2018-04-07T07:46:22.905Z,6.17
2018-04-07T07:48:50.547Z,7.30
2018-04-07T07:51:18.156Z,6.60
2018-04-07T07:53:45.793Z,6.37
2018-04-07T07:56:13.404Z,7.37
2018-04-07T07:58:41.074Z,5.70
2018-04-07T08:01:08.729Z,6.50
2018-04-07T08:03:36.352Z,7.27
2018-04-07T08:06:03.984Z,5.57
2018-04-07T08:08:31.597Z,4.60
2018-04-07T08:10:59.245Z,5.93
2018-04-07T08:13:26.860Z,6.90
2018-04-07T08:15:54.592Z,5.10
2018-04-07T08:18:22.256Z,5.73
2018-04-07T08:20:50.003Z,6.27
2018-04-07T08:23:17.593Z,6.83
2018-04-07T08:25:45.237Z,6.07
2018-04-07T08:28:12.864Z,7.27
2018-04-07T08:30:40.581Z,7.53
2018-04-07T08:33:08.192Z,6.90
2018-04-07T08:35:35.827Z,7.57
2018-04-07T08:38:03.477Z,7.77
2018-04-07T08:40:31.117Z,8.00
2018-04-07T08:42:58.728Z,6.13
2018-04-07T08:45:26.438Z,6.40
2018-04-07T08:47:53.997Z,7.50
2018-04-07T08:50:21.624Z,6.80
2018-04-07T08:52:49.239Z,5.80
2018-04-07T08:55:16.904Z,7.10
2018-04-07T08:57:44.517Z,5.20
2018-04-07T09:00:12.219Z,4.72
2018-04-07T09:02:39.987Z,7.75
2018-04-07T09:05:07.645Z,5.77
2018-04-07T09:07:35.312Z,7.57
2018-04-07T09:10:02.953Z,7.20
2018-04-07T09:12:30.642Z,7.00
2018-04-07T09:14:58.305Z,7.70
2018-04-07T09:17:25.955Z,7.77
2018-04-07T09:19:53.619Z,8.70
2018-04-07T09:22:21.243Z,8.07
2018-04-07T09:24:48.877Z,8.27
2018-04-07T09:27:16.482Z,8.13
2018-04-07T09:29:44.101Z,7.70
2018-04-07T09:32:11.731Z,7.83
2018-04-07T09:34:39.391Z,7.77
2018-04-07T09:37:07.023Z,9.00
2018-04-07T09:39:34.640Z,7.50
2018-04-07T09:42:02.301Z,6.63
2018-04-07T09:44:29.933Z,7.53
2018-04-07T09:46:57.612Z,9.20
2018-04-07T09:49:25.272Z,7.20
2018-04-07T09:51:52.916Z,8.30
2018-04-07T09:54:20.528Z,8.73
2018-04-07T09:56:48.256Z,7.83
2018-04-07T09:59:15.869Z,8.33
2018-04-07T10:01:43.503Z,9.40
2018-04-07T10:04:11.117Z,8.20
2018-04-07T10:06:38.809Z,9.73
2018-04-07T10:09:06.412Z,8.57
2018-04-07T10:11:34.052Z,8.90
2018-04-07T10:14:01.696Z,7.90
2018-04-07T10:16:29.332Z,9.00
2018-04-07T10:18:57.041Z,9.50
2018-04-07T10:21:24.996Z,9.80
2018-04-07T10:23:52.656Z,9.10
2018-04-07T10:26:20.293Z,9.70
2018-04-07T10:28:47.910Z,9.40
2018-04-07T10:31:15.550Z,8.10
2018-04-07T10:33:43.161Z,8.80
2018-04-07T10:36:10.787Z,8.17
2018-04-07T10:38:38.396Z,9.20
2018-04-07T10:41:06.024Z,8.70
2018-04-07T10:43:33.753Z,8.50
2018-04-07T10:46:01.392Z,7.80
2018-04-07T10:48:29.005Z,8.57
2018-04-07T10:50:56.672Z,8.53
2018-04-07T10:53:24.288Z,8.87
2018-04-07T10:55:51.961Z,7.23
2018-04-07T10:58:19.616Z,7.60
2018-04-07T11:00:47.258Z,8.07
2018-04-07T11:03:14.884Z,10.00
2018-04-07T11:05:42.503Z,9.60
2018-04-07T11:08:10.183Z,8.90
2018-04-07T11:10:37.804Z,9.67
2018-04-07T11:13:05.502Z,9.07
2018-04-07T11:15:33.160Z,10.10
2018-04-07T11:18:00.796Z,8.53
2018-04-07T11:20:28.408Z,9.20
2018-04-07T11:22:56.044Z,9.40
2018-04-07T11:25:23.662Z,8.80
2018-04-07T11:27:51.304Z,8.43
2018-04-07T11:30:18.932Z,9.87
2018-04-07T11:32:46.602Z,10.60
2018-04-07T11:35:14.270Z,10.83
2018-04-07T11:37:41.895Z,9.63
2018-04-07T11:40:09.510Z,8.63
2018-04-07T11:42:37.245Z,9.80
2018-04-07T11:45:04.887Z,9.13
2018-04-07T11:47:32.521Z,8.27
2018-04-07T11:50:00.136Z,8.20
2018-04-07T11:52:27.816Z,10.00
2018-04-07T11:54:55.431Z,10.40
2018-04-07T11:57:23.112Z,9.30
2018-04-07T11:59:50.728Z,10.07
2018-04-07T12:02:18.567Z,10.40
2018-04-07T12:04:46.188Z,11.40
2018-04-07T12:07:13.833Z,10.40
2018-04-07T12:09:41.446Z,10.10
2018-04-07T12:12:09.092Z,10.07
2018-04-07T12:14:36.751Z,9.33
2018-04-07T12:17:04.379Z,9.77
2018-04-07T12:19:32.080Z,10.93
2018-04-07T12:21:59.726Z,8.93
2018-04-07T12:24:27.399Z,10.00
2018-04-07T12:26:55.032Z,9.50
2018-04-07T12:29:22.643Z,9.77
2018-04-07T12:31:50.283Z,10.73
2018-04-07T12:34:17.956Z,10.30
2018-04-07T12:36:45.585Z,10.60
2018-04-07T12:39:13.289Z,10.57
2018-04-07T12:41:41.323Z,10.00
2018-04-07T12:44:08.973Z,9.87
2018-04-07T12:46:36.615Z,8.90
2018-04-07T12:49:04.232Z,11.20
2018-04-07T12:51:31.853Z,11.17
2018-04-07T12:53:59.488Z,10.47
2018-04-07T12:56:27.104Z,10.00
2018-04-07T12:58:54.746Z,11.30
2018-04-07T13:01:23.149Z,10.63
2018-04-07T13:03:50.814Z,9.80
2018-04-07T13:06:18.429Z,11.63
2018-04-07T13:08:46.156Z,12.40
2018-04-07T13:11:13.796Z,12.00
2018-04-07T13:13:41.484Z,11.43
2018-04-07T13:16:09.145Z,9.90
2018-04-07T13:18:36.786Z,10.47
2018-04-07T13:21:04.402Z,11.87
2018-04-07T13:23:32.072Z,10.50
2018-04-07T13:25:59.694Z,10.10
2018-04-07T13:28:27.350Z,10.80
2018-04-07T13:30:54.959Z,10.63
2018-04-07T13:33:22.592Z,9.87
2018-04-07T13:35:50.234Z,11.00
2018-04-07T13:38:17.903Z,10.90
2018-04-07T13:40:45.521Z,9.40
2018-04-07T13:43:13.222Z,10.00
2018-04-07T13:45:40.838Z,10.73
2018-04-07T13:48:08.488Z,12.17
2018-04-07T13:50:36.092Z,9.80
2018-04-07T13:53:03.737Z,10.90
2018-04-07T13:55:31.442Z,11.03
2018-04-07T13:57:59.125Z,12.23
2018-04-07T14:00:27.274Z,12.40
2018-04-07T14:02:54.936Z,11.83
2018-04-07T14:05:22.561Z,12.60
2018-04-07T14:07:50.269Z,12.40
2018-04-07T14:10:17.888Z,11.80
2018-04-07T14:14:48.932Z,11.77
2018-04-07T14:17:16.560Z,11.60
2018-04-07T14:19:44.200Z,10.83
2018-04-07T14:22:11.831Z,12.37
2018-04-07T14:24:39.469Z,12.40
2018-04-07T14:27:07.092Z,12.07
2018-04-07T14:29:34.783Z,12.87
2018-04-07T14:32:02.438Z,13.23
2018-04-07T14:35:26.332Z,13.03
2018-04-07T14:37:53.996Z,11.43
2018-04-07T14:40:21.665Z,12.70
2018-04-07T14:42:49.279Z,10.87
2018-04-07T14:45:16.981Z,11.50
2018-04-07T14:47:44.600Z,12.00
2018-04-07T14:50:12.232Z,11.63
2018-04-07T14:52:39.873Z,11.27
2018-04-07T14:55:07.517Z,11.13
2018-04-07T14:57:35.142Z,12.67
2018-04-07T15:00:02.785Z,11.63
2018-04-07T15:02:30.483Z,12.90
2018-04-07T15:04:58.119Z,10.80
2018-04-07T15:07:25.976Z,12.27
2018-04-07T15:09:53.709Z,10.67
2018-04-07T15:12:21.332Z,11.67
2018-04-07T15:14:48.993Z,11.60
2018-04-07T15:17:16.611Z,13.00
2018-04-07T15:19:44.258Z,11.73
2018-04-07T15:22:11.927Z,12.70
2018-04-07T15:24:39.564Z,12.07
2018-04-07T15:27:07.197Z,10.63
2018-04-07T15:29:34.836Z,11.60
2018-04-07T15:32:02.460Z,13.77
2018-04-07T15:34:30.123Z,12.03
2018-04-07T15:36:57.741Z,11.50
2018-04-07T15:39:25.351Z,13.10
2018-04-07T15:41:53.007Z,13.17
2018-04-07T15:44:20.682Z,13.13
2018-04-07T15:46:48.321Z,11.97
2018-04-07T15:49:15.937Z,11.50
2018-04-07T15:51:43.572Z,12.63
2018-04-07T15:54:11.189Z,11.30
2018-04-07T15:56:38.962Z,11.50
2018-04-07T15:59:06.537Z,12.37
2018-04-07T16:01:34.180Z,12.10
2018-04-07T16:04:02.692Z,12.10
2018-04-07T16:06:30.324Z,12.53
2018-04-07T16:08:57.942Z,11.97
2018-04-07T16:11:25.589Z,11.57
2018-04-07T16:13:53.319Z,11.10
2018-04-07T16:16:20.940Z,11.00
2018-04-07T16:18:48.556Z,11.73
2018-04-07T16:21:16.192Z,13.60
2018-04-07T16:23:43.819Z,11.67
2018-04-07T16:26:11.460Z,12.07
2018-04-07T16:28:39.126Z,10.23
2018-04-07T16:31:06.776Z,12.60
2018-04-07T16:33:34.397Z,11.07
2018-04-07T16:36:02.107Z,12.17
2018-04-07T16:38:29.773Z,9.93
2018-04-07T16:40:57.412Z,12.20
2018-04-07T16:43:25.095Z,9.63
2018-04-07T16:45:52.732Z,10.63
2018-04-07T16:48:20.413Z,10.83
2018-04-07T16:50:48.074Z,10.10
2018-04-07T16:53:15.739Z,11.47
2018-04-07T16:55:43.717Z,10.10
2018-04-07T16:58:11.389Z,12.20
2018-04-07T17:00:39.004Z,12.00
2018-04-07T17:03:06.644Z,12.03
2018-04-07T17:05:34.272Z,12.30
2018-04-07T17:08:01.908Z,13.30
2018-04-07T17:10:29.533Z,11.10
2018-04-07T17:12:57.172Z,12.43
2018-04-07T17:15:24.779Z,12.97
2018-04-07T17:17:52.484Z,13.90
2018-04-07T17:20:20.129Z,13.80
2018-04-07T17:22:47.792Z,13.67
2018-04-07T17:25:15.465Z,13.10
2018-04-07T17:27:43.128Z,15.40
2018-04-07T17:30:10.788Z,13.67
2018-04-07T17:32:38.433Z,14.33
2018-04-07T17:35:06.108Z,14.73
2018-04-07T17:37:33.740Z,14.33
2018-04-07T17:40:01.358Z,15.20
2018-04-07T17:42:29.001Z,16.07
2018-04-07T17:44:56.661Z,15.43
2018-04-07T17:47:24.327Z,15.30
2018-04-07T17:49:52.015Z,15.23
2018-04-07T17:52:19.756Z,15.70
2018-04-07T17:54:47.372Z,13.80
2018-04-07T17:57:15.076Z,14.43
2018-04-07T17:59:42.749Z,14.90
2018-04-07T18:02:10.414Z,14.03
2018-04-07T18:04:38.066Z,14.10
2018-04-07T18:07:05.734Z,15.30
2018-04-07T18:09:33.376Z,14.20
2018-04-07T18:12:01.000Z,13.27
2018-04-07T18:14:28.644Z,13.37
2018-04-07T18:16:56.256Z,15.47
2018-04-07T18:19:23.976Z,12.23
2018-04-07T18:21:51.581Z,13.50
2018-04-07T18:24:19.247Z,13.07
2018-04-07T18:26:46.864Z,13.40
2018-04-07T18:29:14.500Z,14.03
2018-04-07T18:31:42.157Z,12.90
2018-04-07T18:34:09.813Z,15.70
2018-04-07T18:36:37.456Z,15.13
2018-04-07T18:39:05.144Z,13.93
2018-04-07T18:41:32.762Z,15.37
2018-04-07T18:44:00.445Z,14.10
2018-04-07T18:46:28.062Z,12.83
2018-04-07T18:48:55.789Z,13.27
2018-04-07T18:51:23.408Z,13.70
2018-04-07T18:53:51.055Z,15.40
2018-04-07T18:56:18.776Z,13.60
2018-04-07T18:58:46.412Z,15.03
2018-04-07T19:01:14.029Z,12.77
2018-04-07T19:03:41.764Z,13.90
2018-04-07T19:06:09.385Z,15.73
2018-04-07T19:08:37.020Z,15.80
2018-04-07T19:11:04.637Z,14.90
2018-04-07T19:13:32.313Z,14.97
2018-04-07T19:15:59.937Z,14.07
2018-04-07T19:18:27.560Z,13.83
2018-04-07T19:20:55.205Z,13.47
2018-04-07T19:23:22.820Z,12.50
2018-04-07T19:25:50.529Z,13.20
2018-04-07T19:28:18.152Z,12.80
2018-04-07T19:30:45.796Z,12.63
2018-04-07T19:33:13.416Z,13.87
2018-04-07T19:35:41.052Z,12.70
2018-04-07T19:38:08.660Z,12.67
2018-04-07T19:40:36.296Z,11.90
2018-04-07T19:43:03.908Z,11.30
2018-04-07T19:45:31.547Z,11.73
2018-04-07T19:47:59.186Z,11.30
2018-04-07T19:50:26.981Z,11.43
2018-04-07T19:52:54.599Z,10.77
2018-04-07T19:55:22.273Z,11.30
2018-04-07T19:57:49.932Z,10.93
2018-04-07T20:00:17.592Z,10.50
2018-04-07T20:02:45.232Z,10.70
2018-04-07T20:05:12.890Z,11.50
2018-04-07T20:07:40.537Z,10.90
2018-04-07T20:10:08.176Z,12.63
2018-04-07T20:12:35.799Z,12.43
2018-04-07T20:15:03.440Z,12.20
2018-04-07T20:17:31.055Z,12.37
2018-04-07T20:19:58.839Z,12.97
2018-04-07T20:22:26.445Z,12.50
2018-04-07T20:24:54.112Z,13.10
2018-04-07T20:27:21.724Z,13.10
2018-04-07T20:29:49.444Z,12.23
2018-04-07T20:32:17.119Z,13.40
2018-04-07T20:34:44.774Z,13.53
2018-04-07T20:37:12.411Z,12.50
2018-04-07T20:39:40.255Z,12.80
2018-04-07T20:42:19.759Z,14.57
2018-04-07T20:44:47.371Z,14.33
2018-04-07T20:47:15.021Z,13.00
2018-04-07T20:49:42.700Z,14.00
2018-04-07T20:52:10.341Z,13.17
2018-04-07T20:54:38.052Z,14.13
2018-04-07T20:57:05.682Z,38.97
2018-04-07T20:59:33.301Z,23.93
2018-04-07T21:02:00.944Z,15.70
2018-04-07T21:04:28.594Z,12.87
2018-04-07T21:06:56.235Z,14.30
2018-04-07T21:09:23.856Z,14.00
2018-04-07T21:11:51.598Z,14.37
2018-04-07T21:14:19.220Z,14.17
2018-04-07T21:16:46.916Z,13.97
2018-04-07T21:19:14.576Z,14.90
2018-04-07T21:21:42.244Z,14.50
2018-04-07T21:24:09.861Z,13.70
2018-04-07T21:26:37.496Z,14.00
2018-04-07T21:29:05.133Z,14.33
2018-04-07T21:31:32.777Z,15.20
2018-04-07T21:34:00.457Z,16.83
2018-04-07T21:36:28.106Z,15.20
2018-04-07T21:38:55.730Z,16.87
2018-04-07T21:41:23.381Z,15.50
2018-04-07T21:43:51.001Z,15.20
2018-04-07T21:46:18.645Z,15.97
2018-04-07T21:48:46.260Z,15.20
2018-04-07T21:51:13.877Z,17.30
2018-04-07T21:53:41.515Z,17.13
2018-04-07T21:56:09.212Z,16.20
2018-04-07T21:58:36.857Z,16.83
2018-04-07T22:01:04.469Z,18.13
2018-04-07T22:03:32.108Z,17.33
2018-04-07T22:05:59.730Z,16.40
2018-04-07T22:08:27.374Z,16.43
2018-04-07T22:10:54.988Z,17.30
2018-04-07T22:13:22.623Z,17.13
2018-04-07T22:15:50.250Z,17.63
2018-04-07T22:18:18.025Z,16.57
2018-04-07T22:20:45.641Z,17.23
2018-04-07T22:23:13.276Z,15.87
2018-04-07T22:25:40.893Z,17.53
2018-04-07T22:28:08.615Z,17.90
2018-04-07T22:30:36.235Z,16.97
2018-04-07T22:33:03.886Z,17.63
2018-04-07T22:35:31.513Z,17.70
2018-04-07T22:37:59.152Z,17.77
2018-04-07T22:40:26.769Z,17.30
2018-04-07T22:42:54.413Z,16.67
2018-04-07T22:45:22.060Z,17.50
2018-04-07T22:47:49.699Z,18.47
2018-04-07T22:50:17.311Z,18.40
2018-04-07T22:52:45.044Z,18.80
2018-04-07T22:55:12.665Z,17.60
2018-04-07T22:57:40.368Z,18.20
2018-04-07T23:00:08.031Z,16.77
2018-04-07T23:02:35.687Z,19.33
2018-04-07T23:05:03.324Z,20.23
2018-04-07T23:07:31.020Z,18.93
2018-04-07T23:09:58.656Z,18.00
2018-04-07T23:12:26.282Z,17.20
2018-04-07T23:14:53.932Z,16.83
2018-04-07T23:17:21.550Z,16.87
2018-04-07T23:19:49.184Z,17.97
2018-04-07T23:22:16.811Z,16.60
2018-04-07T23:24:44.455Z,16.90
2018-04-07T23:27:12.073Z,17.70
2018-04-07T23:29:39.872Z,20.00
2018-04-07T23:32:07.544Z,18.20
2018-04-07T23:34:35.188Z,17.70
2018-04-07T23:37:02.805Z,18.00
2018-04-07T23:39:30.455Z,17.27
2018-04-07T23:41:58.186Z,18.90
2018-04-07T23:44:25.820Z,17.20
2018-04-07T23:46:53.441Z,18.17
2018-04-07T23:49:21.086Z,15.60
2018-04-07T23:51:48.695Z,17.33
2018-04-07T23:54:16.405Z,18.30
2018-04-07T23:56:44.064Z,16.80
2018-04-07T23:59:11.721Z,18.50
